sensor_id;sensor_type;location;lat;lon;timestamp;P1;durP1;ratioP1;P2;durP2;ratioP2
16073;SDS011;8141;52.664;5.074;2023-05-10T00:00:24;2.43;;;0.57;;
16073;SDS011;8141;52.664;5.074;2023-05-10T00:02:50;2.30;;;0.57;;
16073;SDS011;8141;52.664;5.074;2023-05-10T00:05:16;3.07;;;0.47;;
16073;SDS011;8141;52.664;5.074;2023-05-10T00:07:41;0.53;;;0.30;;
16073;SDS011;8141;52.664;5.074;2023-05-10T00:10:09;1.23;;;0.40;;
16073;SDS011;8141;52.664;5.074;2023-05-10T00:12:36;2.27;;;0.63;;
16073;SDS011;8141;52.664;5.074;2023-05-10T00:15:02;1.87;;;0.60;;
16073;SDS011;8141;52.664;5.074;2023-05-10T00:17:28;0.63;;;0.47;;
16073;SDS011;8141;52.664;5.074;2023-05-10T00:19:54;4.73;;;0.70;;
16073;SDS011;8141;52.664;5.074;2023-05-10T00:22:20;1.27;;;0.50;;
16073;SDS011;8141;52.664;5.074;2023-05-10T00:24:46;1.17;;;0.50;;
16073;SDS011;8141;52.664;5.074;2023-05-10T00:27:11;1.00;;;0.40;;
16073;SDS011;8141;52.664;5.074;2023-05-10T00:29:37;0.83;;;0.43;;
16073;SDS011;8141;52.664;5.074;2023-05-10T00:32:03;0.90;;;0.50;;
16073;SDS011;8141;52.664;5.074;2023-05-10T00:34:29;2.20;;;0.57;;
16073;SDS011;8141;52.664;5.074;2023-05-10T00:36:55;0.63;;;0.40;;
16073;SDS011;8141;52.664;5.074;2023-05-10T00:39:21;1.37;;;0.50;;
16073;SDS011;8141;52.664;5.074;2023-05-10T00:41:47;1.53;;;0.70;;
16073;SDS011;8141;52.664;5.074;2023-05-10T00:44:12;2.33;;;0.47;;
16073;SDS011;8141;52.664;5.074;2023-05-10T00:46:38;4.63;;;0.53;;
16073;SDS011;8141;52.664;5.074;2023-05-10T00:49:04;3.03;;;1.13;;
16073;SDS011;8141;52.664;5.074;2023-05-10T00:51:31;0.50;;;0.40;;
16073;SDS011;8141;52.664;5.074;2023-05-10T00:53:57;0.90;;;0.80;;
16073;SDS011;8141;52.664;5.074;2023-05-10T00:56:23;2.37;;;0.60;;
16073;SDS011;8141;52.664;5.074;2023-05-10T00:58:50;0.87;;;0.50;;
16073;SDS011;8141;52.664;5.074;2023-05-10T01:01:16;1.53;;;0.60;;
16073;SDS011;8141;52.664;5.074;2023-05-10T01:03:42;3.30;;;0.70;;
16073;SDS011;8141;52.664;5.074;2023-05-10T01:06:08;0.40;;;0.40;;
16073;SDS011;8141;52.664;5.074;2023-05-10T01:08:35;0.93;;;0.43;;
16073;SDS011;8141;52.664;5.074;2023-05-10T01:11:01;2.40;;;0.50;;
16073;SDS011;8141;52.664;5.074;2023-05-10T01:16:04;1.50;;;0.40;;
16073;SDS011;8141;52.664;5.074;2023-05-10T01:18:33;1.17;;;0.57;;
16073;SDS011;8141;52.664;5.074;2023-05-10T01:26:49;0.67;;;0.30;;
16073;SDS011;8141;52.664;5.074;2023-05-10T01:29:55;2.57;;;0.47;;
16073;SDS011;8141;52.664;5.074;2023-05-10T01:36:07;2.58;;;0.52;;
16073;SDS011;8141;52.664;5.074;2023-05-10T01:38:51;1.03;;;0.40;;
16073;SDS011;8141;52.664;5.074;2023-05-10T01:47:05;0.87;;;0.60;;
16073;SDS011;8141;52.664;5.074;2023-05-10T01:49:46;0.77;;;0.40;;
16073;SDS011;8141;52.664;5.074;2023-05-10T01:52:16;2.20;;;0.60;;
16073;SDS011;8141;52.664;5.074;2023-05-10T01:54:52;0.93;;;0.70;;
16073;SDS011;8141;52.664;5.074;2023-05-10T01:57:22;0.93;;;0.30;;
16073;SDS011;8141;52.664;5.074;2023-05-10T01:59:52;2.73;;;0.53;;
16073;SDS011;8141;52.664;5.074;2023-05-10T02:02:20;0.90;;;0.50;;
16073;SDS011;8141;52.664;5.074;2023-05-10T02:04:48;1.10;;;0.40;;
16073;SDS011;8141;52.664;5.074;2023-05-10T02:07:16;1.80;;;0.70;;
16073;SDS011;8141;52.664;5.074;2023-05-10T02:09:43;1.30;;;0.57;;
16073;SDS011;8141;52.664;5.074;2023-05-10T02:12:13;1.60;;;0.50;;
16073;SDS011;8141;52.664;5.074;2023-05-10T02:14:40;3.30;;;0.50;;
16073;SDS011;8141;52.664;5.074;2023-05-10T02:17:07;1.37;;;0.50;;
16073;SDS011;8141;52.664;5.074;2023-05-10T02:19:35;2.13;;;0.40;;
16073;SDS011;8141;52.664;5.074;2023-05-10T02:22:04;1.40;;;0.70;;
16073;SDS011;8141;52.664;5.074;2023-05-10T02:24:32;4.23;;;0.43;;
16073;SDS011;8141;52.664;5.074;2023-05-10T02:26:59;0.90;;;0.50;;
16073;SDS011;8141;52.664;5.074;2023-05-10T02:29:27;1.00;;;0.47;;
16073;SDS011;8141;52.664;5.074;2023-05-10T02:31:54;2.30;;;0.40;;
16073;SDS011;8141;52.664;5.074;2023-05-10T02:34:21;1.50;;;0.50;;
16073;SDS011;8141;52.664;5.074;2023-05-10T02:36:50;1.43;;;0.63;;
16073;SDS011;8141;52.664;5.074;2023-05-10T02:39:18;2.67;;;0.50;;
16073;SDS011;8141;52.664;5.074;2023-05-10T02:41:46;2.97;;;0.80;;
16073;SDS011;8141;52.664;5.074;2023-05-10T02:44:14;1.47;;;0.60;;
16073;SDS011;8141;52.664;5.074;2023-05-10T02:46:43;2.03;;;0.73;;
16073;SDS011;8141;52.664;5.074;2023-05-10T02:49:09;2.70;;;0.50;;
16073;SDS011;8141;52.664;5.074;2023-05-10T02:51:35;1.70;;;0.53;;
16073;SDS011;8141;52.664;5.074;2023-05-10T02:54:15;1.20;;;0.63;;
16073;SDS011;8141;52.664;5.074;2023-05-10T02:56:47;2.63;;;0.50;;
16073;SDS011;8141;52.664;5.074;2023-05-10T02:59:16;1.13;;;0.50;;
16073;SDS011;8141;52.664;5.074;2023-05-10T03:01:42;3.00;;;0.70;;
16073;SDS011;8141;52.664;5.074;2023-05-10T03:04:07;4.23;;;0.60;;
16073;SDS011;8141;52.664;5.074;2023-05-10T03:06:33;0.40;;;0.40;;
16073;SDS011;8141;52.664;5.074;2023-05-10T03:08:59;2.60;;;0.70;;
16073;SDS011;8141;52.664;5.074;2023-05-10T03:11:44;2.43;;;0.70;;
16073;SDS011;8141;52.664;5.074;2023-05-10T03:14:34;3.20;;;0.60;;
16073;SDS011;8141;52.664;5.074;2023-05-10T03:20:24;0.70;;;0.40;;
16073;SDS011;8141;52.664;5.074;2023-05-10T03:25:42;1.67;;;0.73;;
16073;SDS011;8141;52.664;5.074;2023-05-10T03:28:09;1.70;;;0.73;;
16073;SDS011;8141;52.664;5.074;2023-05-10T03:30:35;0.73;;;0.50;;
16073;SDS011;8141;52.664;5.074;2023-05-10T03:33:05;0.70;;;0.60;;
16073;SDS011;8141;52.664;5.074;2023-05-10T03:35:31;1.53;;;0.60;;
16073;SDS011;8141;52.664;5.074;2023-05-10T03:37:57;0.53;;;0.40;;
16073;SDS011;8141;52.664;5.074;2023-05-10T03:40:23;2.47;;;0.60;;
16073;SDS011;8141;52.664;5.074;2023-05-10T03:42:49;0.70;;;0.50;;
16073;SDS011;8141;52.664;5.074;2023-05-10T03:45:15;0.93;;;0.70;;
16073;SDS011;8141;52.664;5.074;2023-05-10T03:47:41;1.30;;;0.80;;
16073;SDS011;8141;52.664;5.074;2023-05-10T03:50:07;1.93;;;0.60;;
16073;SDS011;8141;52.664;5.074;2023-05-10T03:52:33;1.20;;;0.70;;
16073;SDS011;8141;52.664;5.074;2023-05-10T03:54:58;1.37;;;0.63;;
16073;SDS011;8141;52.664;5.074;2023-05-10T03:57:24;4.00;;;0.97;;
16073;SDS011;8141;52.664;5.074;2023-05-10T03:59:50;4.30;;;0.93;;
16073;SDS011;8141;52.664;5.074;2023-05-10T04:02:16;2.67;;;0.80;;
16073;SDS011;8141;52.664;5.074;2023-05-10T04:04:41;1.27;;;0.77;;
16073;SDS011;8141;52.664;5.074;2023-05-10T04:07:07;3.43;;;0.77;;
16073;SDS011;8141;52.664;5.074;2023-05-10T04:09:34;0.73;;;0.50;;
16073;SDS011;8141;52.664;5.074;2023-05-10T04:12:00;1.90;;;0.80;;
16073;SDS011;8141;52.664;5.074;2023-05-10T04:14:27;3.40;;;0.80;;
16073;SDS011;8141;52.664;5.074;2023-05-10T04:16:53;1.10;;;0.60;;
16073;SDS011;8141;52.664;5.074;2023-05-10T04:19:18;3.00;;;1.00;;
16073;SDS011;8141;52.664;5.074;2023-05-10T04:21:44;1.50;;;0.63;;
16073;SDS011;8141;52.664;5.074;2023-05-10T04:24:10;1.67;;;0.90;;
16073;SDS011;8141;52.664;5.074;2023-05-10T04:26:36;1.37;;;0.70;;
16073;SDS011;8141;52.664;5.074;2023-05-10T04:29:01;0.67;;;0.53;;
16073;SDS011;8141;52.664;5.074;2023-05-10T04:31:27;0.83;;;0.50;;
16073;SDS011;8141;52.664;5.074;2023-05-10T04:33:53;1.77;;;0.60;;
16073;SDS011;8141;52.664;5.074;2023-05-10T04:36:18;1.67;;;0.73;;
16073;SDS011;8141;52.664;5.074;2023-05-10T04:38:44;1.80;;;0.63;;
16073;SDS011;8141;52.664;5.074;2023-05-10T04:41:10;1.63;;;0.60;;
16073;SDS011;8141;52.664;5.074;2023-05-10T04:43:36;1.10;;;0.50;;
16073;SDS011;8141;52.664;5.074;2023-05-10T04:46:03;1.40;;;0.63;;
16073;SDS011;8141;52.664;5.074;2023-05-10T04:48:30;0.90;;;0.53;;
16073;SDS011;8141;52.664;5.074;2023-05-10T04:50:55;2.93;;;0.83;;
16073;SDS011;8141;52.664;5.074;2023-05-10T04:53:21;1.90;;;0.60;;
16073;SDS011;8141;52.664;5.074;2023-05-10T04:55:48;1.37;;;0.60;;
16073;SDS011;8141;52.664;5.074;2023-05-10T04:58:14;2.17;;;0.83;;
16073;SDS011;8141;52.664;5.074;2023-05-10T05:00:40;2.83;;;0.60;;
16073;SDS011;8141;52.664;5.074;2023-05-10T05:03:06;4.23;;;0.77;;
16073;SDS011;8141;52.664;5.074;2023-05-10T05:05:32;2.57;;;0.60;;
16073;SDS011;8141;52.664;5.074;2023-05-10T05:07:58;1.07;;;0.53;;
16073;SDS011;8141;52.664;5.074;2023-05-10T05:10:23;2.33;;;0.80;;
16073;SDS011;8141;52.664;5.074;2023-05-10T05:12:49;2.17;;;0.77;;
16073;SDS011;8141;52.664;5.074;2023-05-10T05:15:15;2.17;;;0.50;;
16073;SDS011;8141;52.664;5.074;2023-05-10T05:17:41;1.73;;;0.60;;
16073;SDS011;8141;52.664;5.074;2023-05-10T05:20:08;1.77;;;0.83;;
16073;SDS011;8141;52.664;5.074;2023-05-10T05:22:36;2.93;;;0.70;;
16073;SDS011;8141;52.664;5.074;2023-05-10T05:25:02;1.43;;;0.83;;
16073;SDS011;8141;52.664;5.074;2023-05-10T05:27:28;1.30;;;0.70;;
16073;SDS011;8141;52.664;5.074;2023-05-10T05:29:57;2.70;;;1.00;;
16073;SDS011;8141;52.664;5.074;2023-05-10T05:32:23;1.70;;;0.73;;
16073;SDS011;8141;52.664;5.074;2023-05-10T05:34:50;1.17;;;0.60;;
16073;SDS011;8141;52.664;5.074;2023-05-10T05:37:20;3.00;;;0.93;;
16073;SDS011;8141;52.664;5.074;2023-05-10T05:39:46;2.40;;;0.87;;
16073;SDS011;8141;52.664;5.074;2023-05-10T05:42:12;1.73;;;0.60;;
16073;SDS011;8141;52.664;5.074;2023-05-10T05:44:39;1.27;;;0.80;;
16073;SDS011;8141;52.664;5.074;2023-05-10T05:47:05;2.50;;;1.17;;
16073;SDS011;8141;52.664;5.074;2023-05-10T05:49:31;1.27;;;0.63;;
16073;SDS011;8141;52.664;5.074;2023-05-10T05:52:01;4.17;;;1.50;;
16073;SDS011;8141;52.664;5.074;2023-05-10T05:54:28;2.00;;;1.10;;
16073;SDS011;8141;52.664;5.074;2023-05-10T05:56:58;1.77;;;0.80;;
16073;SDS011;8141;52.664;5.074;2023-05-10T05:59:26;1.53;;;0.67;;
16073;SDS011;8141;52.664;5.074;2023-05-10T06:01:52;1.37;;;0.60;;
16073;SDS011;8141;52.664;5.074;2023-05-10T06:04:18;1.90;;;0.80;;
16073;SDS011;8141;52.664;5.074;2023-05-10T06:06:44;1.07;;;0.70;;
16073;SDS011;8141;52.664;5.074;2023-05-10T06:09:10;2.47;;;0.73;;
16073;SDS011;8141;52.664;5.074;2023-05-10T06:11:36;1.00;;;0.60;;
16073;SDS011;8141;52.664;5.074;2023-05-10T06:14:02;2.97;;;0.80;;
16073;SDS011;8141;52.664;5.074;2023-05-10T06:16:29;1.07;;;0.70;;
16073;SDS011;8141;52.664;5.074;2023-05-10T06:18:56;3.57;;;0.93;;
16073;SDS011;8141;52.664;5.074;2023-05-10T06:21:21;1.17;;;0.77;;
16073;SDS011;8141;52.664;5.074;2023-05-10T06:23:47;0.93;;;0.63;;
16073;SDS011;8141;52.664;5.074;2023-05-10T06:26:13;1.43;;;0.70;;
16073;SDS011;8141;52.664;5.074;2023-05-10T06:28:39;1.87;;;0.80;;
16073;SDS011;8141;52.664;5.074;2023-05-10T06:31:06;1.73;;;0.60;;
16073;SDS011;8141;52.664;5.074;2023-05-10T06:33:32;2.40;;;0.80;;
16073;SDS011;8141;52.664;5.074;2023-05-10T06:35:58;1.00;;;0.63;;
16073;SDS011;8141;52.664;5.074;2023-05-10T06:38:24;1.73;;;0.60;;
16073;SDS011;8141;52.664;5.074;2023-05-10T06:40:50;1.10;;;0.70;;
16073;SDS011;8141;52.664;5.074;2023-05-10T06:43:16;1.67;;;0.90;;
16073;SDS011;8141;52.664;5.074;2023-05-10T06:45:42;1.37;;;0.93;;
16073;SDS011;8141;52.664;5.074;2023-05-10T06:48:08;1.13;;;0.77;;
16073;SDS011;8141;52.664;5.074;2023-05-10T06:50:34;1.40;;;0.70;;
16073;SDS011;8141;52.664;5.074;2023-05-10T06:53:00;1.53;;;0.87;;
16073;SDS011;8141;52.664;5.074;2023-05-10T06:55:29;1.70;;;0.70;;
16073;SDS011;8141;52.664;5.074;2023-05-10T06:57:54;1.13;;;0.70;;
16073;SDS011;8141;52.664;5.074;2023-05-10T07:00:20;0.87;;;0.70;;
16073;SDS011;8141;52.664;5.074;2023-05-10T07:02:46;1.07;;;0.70;;
16073;SDS011;8141;52.664;5.074;2023-05-10T07:05:12;1.97;;;0.93;;
16073;SDS011;8141;52.664;5.074;2023-05-10T07:07:39;0.83;;;0.80;;
16073;SDS011;8141;52.664;5.074;2023-05-10T07:10:05;1.73;;;0.60;;
16073;SDS011;8141;52.664;5.074;2023-05-10T07:12:32;0.63;;;0.60;;
16073;SDS011;8141;52.664;5.074;2023-05-10T07:14:57;1.47;;;0.60;;
16073;SDS011;8141;52.664;5.074;2023-05-10T07:17:23;1.60;;;0.70;;
16073;SDS011;8141;52.664;5.074;2023-05-10T07:19:49;3.77;;;2.27;;
16073;SDS011;8141;52.664;5.074;2023-05-10T07:22:15;3.90;;;3.40;;
16073;SDS011;8141;52.664;5.074;2023-05-10T07:24:41;7.50;;;4.70;;
16073;SDS011;8141;52.664;5.074;2023-05-10T07:27:08;5.93;;;4.73;;
16073;SDS011;8141;52.664;5.074;2023-05-10T07:29:34;7.17;;;4.17;;
16073;SDS011;8141;52.664;5.074;2023-05-10T07:32:01;8.03;;;4.73;;
16073;SDS011;8141;52.664;5.074;2023-05-10T07:34:27;6.37;;;4.00;;
16073;SDS011;8141;52.664;5.074;2023-05-10T07:36:53;9.50;;;4.77;;
16073;SDS011;8141;52.664;5.074;2023-05-10T07:39:19;10.67;;;4.20;;
16073;SDS011;8141;52.664;5.074;2023-05-10T07:41:47;10.83;;;5.47;;
16073;SDS011;8141;52.664;5.074;2023-05-10T07:44:13;10.30;;;5.60;;
16073;SDS011;8141;52.664;5.074;2023-05-10T07:46:39;11.67;;;5.13;;
16073;SDS011;8141;52.664;5.074;2023-05-10T07:49:05;8.87;;;4.70;;
16073;SDS011;8141;52.664;5.074;2023-05-10T07:51:31;9.30;;;5.80;;
16073;SDS011;8141;52.664;5.074;2023-05-10T07:53:56;8.90;;;5.90;;
16073;SDS011;8141;52.664;5.074;2023-05-10T07:56:29;7.83;;;5.27;;
16073;SDS011;8141;52.664;5.074;2023-05-10T07:59:00;9.10;;;5.80;;
16073;SDS011;8141;52.664;5.074;2023-05-10T08:01:31;11.77;;;4.90;;
16073;SDS011;8141;52.664;5.074;2023-05-10T08:04:00;8.03;;;6.07;;
16073;SDS011;8141;52.664;5.074;2023-05-10T08:06:26;8.17;;;5.40;;
16073;SDS011;8141;52.664;5.074;2023-05-10T08:08:54;7.50;;;5.60;;
16073;SDS011;8141;52.664;5.074;2023-05-10T08:11:20;9.80;;;6.63;;
16073;SDS011;8141;52.664;5.074;2023-05-10T08:13:47;6.93;;;5.83;;
16073;SDS011;8141;52.664;5.074;2023-05-10T08:16:14;9.57;;;5.20;;
16073;SDS011;8141;52.664;5.074;2023-05-10T08:18:41;10.37;;;5.80;;
16073;SDS011;8141;52.664;5.074;2023-05-10T08:21:06;7.33;;;6.13;;
16073;SDS011;8141;52.664;5.074;2023-05-10T08:23:32;8.00;;;5.70;;
16073;SDS011;8141;52.664;5.074;2023-05-10T08:25:58;7.67;;;5.10;;
16073;SDS011;8141;52.664;5.074;2023-05-10T08:28:25;7.70;;;5.90;;
16073;SDS011;8141;52.664;5.074;2023-05-10T08:30:50;8.47;;;6.00;;
16073;SDS011;8141;52.664;5.074;2023-05-10T08:33:20;9.53;;;5.80;;
16073;SDS011;8141;52.664;5.074;2023-05-10T08:35:45;8.33;;;6.33;;
16073;SDS011;8141;52.664;5.074;2023-05-10T08:38:11;7.80;;;5.73;;
16073;SDS011;8141;52.664;5.074;2023-05-10T08:40:38;8.00;;;6.43;;
16073;SDS011;8141;52.664;5.074;2023-05-10T08:43:08;6.93;;;5.77;;
16073;SDS011;8141;52.664;5.074;2023-05-10T08:45:37;7.13;;;6.07;;
16073;SDS011;8141;52.664;5.074;2023-05-10T08:48:08;6.40;;;5.37;;
16073;SDS011;8141;52.664;5.074;2023-05-10T08:50:35;8.07;;;5.73;;
16073;SDS011;8141;52.664;5.074;2023-05-10T08:53:06;7.57;;;6.00;;
16073;SDS011;8141;52.664;5.074;2023-05-10T08:55:36;6.53;;;5.67;;
16073;SDS011;8141;52.664;5.074;2023-05-10T08:58:06;9.83;;;5.80;;
16073;SDS011;8141;52.664;5.074;2023-05-10T09:00:33;7.23;;;5.23;;
16073;SDS011;8141;52.664;5.074;2023-05-10T09:03:00;7.73;;;5.17;;
16073;SDS011;8141;52.664;5.074;2023-05-10T09:05:27;7.97;;;5.80;;
16073;SDS011;8141;52.664;5.074;2023-05-10T09:07:53;7.83;;;5.60;;
16073;SDS011;8141;52.664;5.074;2023-05-10T09:10:19;5.77;;;4.60;;
16073;SDS011;8141;52.664;5.074;2023-05-10T09:12:45;5.70;;;4.10;;
16073;SDS011;8141;52.664;5.074;2023-05-10T09:15:14;5.40;;;4.47;;
16073;SDS011;8141;52.664;5.074;2023-05-10T09:17:42;6.63;;;5.10;;
16073;SDS011;8141;52.664;5.074;2023-05-10T09:20:09;6.37;;;4.27;;
16073;SDS011;8141;52.664;5.074;2023-05-10T09:22:35;6.90;;;5.00;;
16073;SDS011;8141;52.664;5.074;2023-05-10T09:27:31;5.33;;;4.53;;
16073;SDS011;8141;52.664;5.074;2023-05-10T09:29:58;7.27;;;4.10;;
16073;SDS011;8141;52.664;5.074;2023-05-10T09:32:43;9.27;;;4.80;;
16073;SDS011;8141;52.664;5.074;2023-05-10T09:35:15;7.17;;;4.30;;
16073;SDS011;8141;52.664;5.074;2023-05-10T09:37:43;4.53;;;3.77;;
16073;SDS011;8141;52.664;5.074;2023-05-10T09:40:19;6.93;;;4.50;;
16073;SDS011;8141;52.664;5.074;2023-05-10T09:42:52;5.60;;;4.55;;
16073;SDS011;8141;52.664;5.074;2023-05-10T09:45:29;6.30;;;4.87;;
16073;SDS011;8141;52.664;5.074;2023-05-10T09:47:57;5.93;;;4.80;;
16073;SDS011;8141;52.664;5.074;2023-05-10T09:50:25;7.27;;;5.30;;
16073;SDS011;8141;52.664;5.074;2023-05-10T09:52:53;6.30;;;5.40;;
16073;SDS011;8141;52.664;5.074;2023-05-10T09:55:41;6.82;;;4.97;;
16073;SDS011;8141;52.664;5.074;2023-05-10T09:58:14;6.80;;;4.78;;
16073;SDS011;8141;52.664;5.074;2023-05-10T10:00:41;6.97;;;5.20;;
16073;SDS011;8141;52.664;5.074;2023-05-10T10:03:19;7.47;;;5.90;;
16073;SDS011;8141;52.664;5.074;2023-05-10T10:05:46;5.97;;;5.03;;
16073;SDS011;8141;52.664;5.074;2023-05-10T10:08:14;7.37;;;5.80;;
16073;SDS011;8141;52.664;5.074;2023-05-10T10:10:40;10.50;;;5.63;;
16073;SDS011;8141;52.664;5.074;2023-05-10T10:13:09;6.83;;;5.40;;
16073;SDS011;8141;52.664;5.074;2023-05-10T10:15:34;6.97;;;5.20;;
16073;SDS011;8141;52.664;5.074;2023-05-10T10:18:00;7.27;;;5.40;;
16073;SDS011;8141;52.664;5.074;2023-05-10T10:20:28;7.13;;;5.17;;
16073;SDS011;8141;52.664;5.074;2023-05-10T10:22:54;7.30;;;6.03;;
16073;SDS011;8141;52.664;5.074;2023-05-10T10:25:20;7.77;;;6.50;;
16073;SDS011;8141;52.664;5.074;2023-05-10T10:30:25;7.33;;;5.60;;
16073;SDS011;8141;52.664;5.074;2023-05-10T10:35:52;8.20;;;5.63;;
16073;SDS011;8141;52.664;5.074;2023-05-10T10:38:19;6.97;;;5.47;;
16073;SDS011;8141;52.664;5.074;2023-05-10T10:40:46;6.40;;;5.03;;
16073;SDS011;8141;52.664;5.074;2023-05-10T10:43:28;5.70;;;4.67;;
16073;SDS011;8141;52.664;5.074;2023-05-10T10:48:37;6.73;;;5.67;;
16073;SDS011;8141;52.664;5.074;2023-05-10T10:51:03;6.70;;;6.00;;
16073;SDS011;8141;52.664;5.074;2023-05-10T10:53:29;7.80;;;6.33;;
16073;SDS011;8141;52.664;5.074;2023-05-10T10:58:51;7.73;;;5.93;;
16073;SDS011;8141;52.664;5.074;2023-05-10T11:01:18;9.20;;;6.27;;
16073;SDS011;8141;52.664;5.074;2023-05-10T11:06:28;8.53;;;5.83;;
16073;SDS011;8141;52.664;5.074;2023-05-10T11:08:56;6.37;;;5.30;;
16073;SDS011;8141;52.664;5.074;2023-05-10T11:11:23;9.17;;;6.10;;
16073;SDS011;8141;52.664;5.074;2023-05-10T11:13:48;8.03;;;5.57;;
16073;SDS011;8141;52.664;5.074;2023-05-10T11:16:18;12.70;;;6.23;;
16073;SDS011;8141;52.664;5.074;2023-05-10T11:19:00;8.10;;;6.00;;
16073;SDS011;8141;52.664;5.074;2023-05-10T11:21:33;8.20;;;6.20;;
16073;SDS011;8141;52.664;5.074;2023-05-10T11:24:00;12.00;;;6.37;;
16073;SDS011;8141;52.664;5.074;2023-05-10T11:26:31;98.00;;;42.10;;
16073;SDS011;8141;52.664;5.074;2023-05-10T11:29:00;89.00;;;40.03;;
16073;SDS011;8141;52.664;5.074;2023-05-10T11:31:27;76.23;;;33.13;;
16073;SDS011;8141;52.664;5.074;2023-05-10T11:33:54;71.93;;;31.80;;
16073;SDS011;8141;52.664;5.074;2023-05-10T11:36:25;90.03;;;38.10;;
16073;SDS011;8141;52.664;5.074;2023-05-10T11:38:54;97.33;;;43.37;;
16073;SDS011;8141;52.664;5.074;2023-05-10T11:41:22;100.10;;;46.43;;
16073;SDS011;8141;52.664;5.074;2023-05-10T11:43:49;81.10;;;35.03;;
16073;SDS011;8141;52.664;5.074;2023-05-10T11:46:18;69.70;;;31.03;;
16073;SDS011;8141;52.664;5.074;2023-05-10T11:48:49;73.70;;;32.47;;
16073;SDS011;8141;52.664;5.074;2023-05-10T11:51:21;69.47;;;32.77;;
16073;SDS011;8141;52.664;5.074;2023-05-10T11:53:49;64.27;;;28.37;;
16073;SDS011;8141;52.664;5.074;2023-05-10T11:56:18;62.80;;;28.40;;
16073;SDS011;8141;52.664;5.074;2023-05-10T11:58:43;60.47;;;28.93;;
16073;SDS011;8141;52.664;5.074;2023-05-10T12:01:10;54.67;;;25.93;;
16073;SDS011;8141;52.664;5.074;2023-05-10T12:03:36;53.10;;;24.90;;
16073;SDS011;8141;52.664;5.074;2023-05-10T12:06:03;36.57;;;19.13;;
16073;SDS011;8141;52.664;5.074;2023-05-10T12:08:29;38.63;;;21.27;;
16073;SDS011;8141;52.664;5.074;2023-05-10T12:11:05;38.40;;;18.50;;
16073;SDS011;8141;52.664;5.074;2023-05-10T12:13:40;49.90;;;23.43;;
16073;SDS011;8141;52.664;5.074;2023-05-10T12:16:17;37.53;;;18.10;;
16073;SDS011;8141;52.664;5.074;2023-05-10T12:18:47;34.90;;;17.50;;
16073;SDS011;8141;52.664;5.074;2023-05-10T12:21:16;37.87;;;19.07;;
16073;SDS011;8141;52.664;5.074;2023-05-10T12:23:45;28.60;;;14.67;;
16073;SDS011;8141;52.664;5.074;2023-05-10T12:26:13;23.80;;;13.70;;
16073;SDS011;8141;52.664;5.074;2023-05-10T12:28:39;27.07;;;14.67;;
16073;SDS011;8141;52.664;5.074;2023-05-10T12:31:05;25.53;;;14.30;;
16073;SDS011;8141;52.664;5.074;2023-05-10T12:33:35;23.97;;;12.80;;
16073;SDS011;8141;52.664;5.074;2023-05-10T12:38:39;25.60;;;12.77;;
16073;SDS011;8141;52.664;5.074;2023-05-10T12:41:13;19.70;;;11.27;;
16073;SDS011;8141;52.664;5.074;2023-05-10T12:43:41;20.23;;;10.13;;
16073;SDS011;8141;52.664;5.074;2023-05-10T12:48:38;17.20;;;9.80;;
16073;SDS011;8141;52.664;5.074;2023-05-10T12:51:05;18.17;;;9.57;;
16073;SDS011;8141;52.664;5.074;2023-05-10T12:53:36;15.83;;;9.30;;
16073;SDS011;8141;52.664;5.074;2023-05-10T12:56:03;15.47;;;8.40;;
16073;SDS011;8141;52.664;5.074;2023-05-10T12:58:29;14.40;;;8.27;;
16073;SDS011;8141;52.664;5.074;2023-05-10T13:00:55;13.43;;;6.83;;
16073;SDS011;8141;52.664;5.074;2023-05-10T13:03:21;14.03;;;7.20;;
16073;SDS011;8141;52.664;5.074;2023-05-10T13:05:47;11.67;;;7.00;;
16073;SDS011;8141;52.664;5.074;2023-05-10T13:08:13;13.90;;;7.30;;
16073;SDS011;8141;52.664;5.074;2023-05-10T13:10:39;11.23;;;6.93;;
16073;SDS011;8141;52.664;5.074;2023-05-10T13:13:05;13.63;;;6.30;;
16073;SDS011;8141;52.664;5.074;2023-05-10T13:15:32;8.37;;;5.90;;
16073;SDS011;8141;52.664;5.074;2023-05-10T13:17:58;11.73;;;6.60;;
16073;SDS011;8141;52.664;5.074;2023-05-10T13:20:24;12.40;;;6.87;;
16073;SDS011;8141;52.664;5.074;2023-05-10T13:22:50;10.60;;;7.17;;
16073;SDS011;8141;52.664;5.074;2023-05-10T13:25:16;10.67;;;6.40;;
16073;SDS011;8141;52.664;5.074;2023-05-10T13:27:42;8.03;;;5.90;;
16073;SDS011;8141;52.664;5.074;2023-05-10T13:30:08;9.17;;;6.07;;
16073;SDS011;8141;52.664;5.074;2023-05-10T13:32:34;7.90;;;5.50;;
16073;SDS011;8141;52.664;5.074;2023-05-10T13:35:01;8.67;;;5.63;;
16073;SDS011;8141;52.664;5.074;2023-05-10T13:37:28;8.27;;;6.00;;
16073;SDS011;8141;52.664;5.074;2023-05-10T13:39:54;8.53;;;5.93;;
16073;SDS011;8141;52.664;5.074;2023-05-10T13:42:21;8.20;;;5.87;;
16073;SDS011;8141;52.664;5.074;2023-05-10T13:44:48;8.53;;;5.90;;
16073;SDS011;8141;52.664;5.074;2023-05-10T13:47:14;8.30;;;5.70;;
16073;SDS011;8141;52.664;5.074;2023-05-10T13:49:40;5.83;;;4.93;;
16073;SDS011;8141;52.664;5.074;2023-05-10T13:52:06;8.30;;;4.40;;
16073;SDS011;8141;52.664;5.074;2023-05-10T13:54:33;5.83;;;4.90;;
16073;SDS011;8141;52.664;5.074;2023-05-10T13:56:59;7.10;;;4.53;;
16073;SDS011;8141;52.664;5.074;2023-05-10T13:59:25;6.37;;;4.50;;
16073;SDS011;8141;52.664;5.074;2023-05-10T14:01:50;6.93;;;5.03;;
16073;SDS011;8141;52.664;5.074;2023-05-10T14:04:16;8.57;;;4.53;;
16073;SDS011;8141;52.664;5.074;2023-05-10T14:06:42;5.40;;;4.17;;
16073;SDS011;8141;52.664;5.074;2023-05-10T14:09:08;5.90;;;4.30;;
16073;SDS011;8141;52.664;5.074;2023-05-10T14:11:33;6.10;;;4.47;;
16073;SDS011;8141;52.664;5.074;2023-05-10T14:13:59;5.37;;;4.33;;
16073;SDS011;8141;52.664;5.074;2023-05-10T14:16:25;5.30;;;3.83;;
16073;SDS011;8141;52.664;5.074;2023-05-10T14:18:51;6.60;;;4.30;;
16073;SDS011;8141;52.664;5.074;2023-05-10T14:21:17;6.27;;;3.80;;
16073;SDS011;8141;52.664;5.074;2023-05-10T14:23:43;4.97;;;3.87;;
16073;SDS011;8141;52.664;5.074;2023-05-10T14:26:09;4.00;;;3.60;;
16073;SDS011;8141;52.664;5.074;2023-05-10T14:28:34;5.13;;;4.10;;
16073;SDS011;8141;52.664;5.074;2023-05-10T14:31:00;3.80;;;3.40;;
16073;SDS011;8141;52.664;5.074;2023-05-10T14:33:26;4.87;;;3.77;;
16073;SDS011;8141;52.664;5.074;2023-05-10T14:35:53;4.87;;;3.37;;
16073;SDS011;8141;52.664;5.074;2023-05-10T14:38:21;3.93;;;2.87;;
16073;SDS011;8141;52.664;5.074;2023-05-10T14:40:47;3.60;;;2.80;;
16073;SDS011;8141;52.664;5.074;2023-05-10T14:43:13;4.80;;;3.47;;
16073;SDS011;8141;52.664;5.074;2023-05-10T14:45:38;4.17;;;2.73;;
16073;SDS011;8141;52.664;5.074;2023-05-10T14:48:04;3.70;;;3.00;;
16073;SDS011;8141;52.664;5.074;2023-05-10T14:50:30;5.60;;;2.60;;
16073;SDS011;8141;52.664;5.074;2023-05-10T14:52:57;3.17;;;2.63;;
16073;SDS011;8141;52.664;5.074;2023-05-10T14:55:23;3.70;;;2.83;;
16073;SDS011;8141;52.664;5.074;2023-05-10T14:57:49;4.10;;;2.80;;
16073;SDS011;8141;52.664;5.074;2023-05-10T15:00:15;3.63;;;2.47;;
16073;SDS011;8141;52.664;5.074;2023-05-10T15:02:43;3.00;;;1.93;;
16073;SDS011;8141;52.664;5.074;2023-05-10T15:05:09;3.70;;;2.30;;
16073;SDS011;8141;52.664;5.074;2023-05-10T15:07:35;2.40;;;2.17;;
16073;SDS011;8141;52.664;5.074;2023-05-10T15:10:00;4.00;;;2.30;;
16073;SDS011;8141;52.664;5.074;2023-05-10T15:12:26;2.47;;;2.27;;
16073;SDS011;8141;52.664;5.074;2023-05-10T15:14:52;3.00;;;2.37;;
16073;SDS011;8141;52.664;5.074;2023-05-10T15:17:17;3.13;;;2.13;;
16073;SDS011;8141;52.664;5.074;2023-05-10T15:19:43;2.80;;;2.50;;
16073;SDS011;8141;52.664;5.074;2023-05-10T15:22:09;4.43;;;2.50;;
16073;SDS011;8141;52.664;5.074;2023-05-10T15:24:35;3.27;;;2.83;;
16073;SDS011;8141;52.664;5.074;2023-05-10T15:27:01;3.50;;;2.43;;
16073;SDS011;8141;52.664;5.074;2023-05-10T15:29:26;3.23;;;2.40;;
16073;SDS011;8141;52.664;5.074;2023-05-10T15:31:52;3.53;;;2.87;;
16073;SDS011;8141;52.664;5.074;2023-05-10T15:34:18;3.27;;;2.50;;
16073;SDS011;8141;52.664;5.074;2023-05-10T15:36:44;3.60;;;2.40;;
16073;SDS011;8141;52.664;5.074;2023-05-10T15:39:10;2.67;;;2.30;;
16073;SDS011;8141;52.664;5.074;2023-05-10T15:41:36;2.90;;;2.30;;
16073;SDS011;8141;52.664;5.074;2023-05-10T15:44:02;3.00;;;2.07;;